Current Weather

Wadi Al Dawasir

Wadi Al Dawasir, Saudi Arabia (OEWD)

Report from: Friday, April 19, 2024 12:00 PM +03
Current time: Friday, April 19, 2024 12:37 PM +03

Nearby weather – Weather history – Daily summaries
Weather forecast

Temperature33.0°C (91.4°F)
Heat index30.9°C (87.5°F)
Dew point6.0°C (42.8°F)
Winds 10 kts (5.1 m/s, 11.5 mph) Southeast (130°)
Clouds Sky clear
Altimeter29.85 in.Hg (1011 mB)
Relative humidity19 %
Density altitude2,265 ft. (690 m)
Remarks Ceiling and visibility OK
Flight conditions Visual Meteorological Conditions
Raw dataOEWD 190900Z 13010KT CAVOK 33/06 Q1011
An error has occurred. This application may no longer respond until reloaded. Reload 🗙